createdAt,value
2022-10-26T00:00:12.176Z,96481.81
2022-10-26T00:00:44.104Z,96474.22
2022-10-26T00:01:16.831Z,96478.25
2022-10-26T00:01:49.042Z,96477.13
2022-10-26T00:02:21.338Z,96465.78
2022-10-26T00:02:56.663Z,96468.78
2022-10-26T00:03:28.580Z,96465.09
2022-10-26T00:04:00.530Z,96472.00
2022-10-26T00:04:32.560Z,96475.25
2022-10-26T00:05:05.367Z,96479.25
2022-10-26T00:05:37.552Z,96482.03
2022-10-26T00:06:20.725Z,96476.00
2022-10-26T00:06:52.666Z,96470.88
2022-10-26T00:07:24.830Z,96468.22
2022-10-26T00:07:56.912Z,96466.00
2022-10-26T00:08:29.133Z,96456.28
2022-10-26T00:09:01.190Z,96452.72
2022-10-26T00:09:33.314Z,96446.81
2022-10-26T00:10:05.675Z,96445.28
2022-10-26T00:10:39.058Z,96445.84
2022-10-26T00:11:12.576Z,96435.59
2022-10-26T00:11:44.623Z,96442.59
2022-10-26T00:12:16.846Z,96441.56
2022-10-26T00:12:51.408Z,96443.69
2022-10-26T00:13:23.580Z,96433.69
2022-10-26T00:13:55.495Z,96431.69
2022-10-26T00:14:27.394Z,96440.25
2022-10-26T00:14:59.238Z,96430.44
2022-10-26T00:15:31.718Z,96438.16
2022-10-26T00:16:19.816Z,96431.91
2022-10-26T00:16:51.662Z,96436.59
2022-10-26T00:17:23.501Z,96430.34
2022-10-26T00:17:55.364Z,96435.81
2022-10-26T00:18:27.810Z,96436.34
2022-10-26T00:18:59.886Z,96431.44
2022-10-26T00:19:35.220Z,96437.69
2022-10-26T00:20:07.896Z,96440.16
2022-10-26T00:20:40.032Z,96439.03
2022-10-26T00:21:12.944Z,96441.16
2022-10-26T00:21:44.930Z,96435.94
2022-10-26T00:22:16.985Z,96445.50
2022-10-26T00:22:48.953Z,96444.16
2022-10-26T00:23:20.938Z,96433.78
2022-10-26T00:23:52.927Z,96437.69
2022-10-26T00:24:24.912Z,96444.81
2022-10-26T00:24:57.077Z,96443.72
2022-10-26T00:25:29.197Z,96447.72
2022-10-26T00:26:01.373Z,96454.59
2022-10-26T00:26:33.327Z,96456.63
2022-10-26T00:27:05.573Z,96457.75
2022-10-26T00:27:37.666Z,96450.50
2022-10-26T00:28:09.784Z,96464.78
2022-10-26T00:28:41.969Z,96460.09
2022-10-26T00:29:14.012Z,96466.66
2022-10-26T00:29:45.830Z,96466.56
2022-10-26T00:30:18.085Z,96471.22
2022-10-26T00:30:50.119Z,96473.66
2022-10-26T00:31:22.120Z,96459.19
2022-10-26T00:31:54.243Z,96462.09
2022-10-26T00:32:26.413Z,96465.53
2022-10-26T00:32:58.562Z,96460.84
2022-10-26T00:33:31.331Z,96460.63
2022-10-26T00:34:03.484Z,96466.66
2022-10-26T00:34:35.828Z,96465.22
2022-10-26T00:35:21.199Z,96461.53
2022-10-26T00:36:00.413Z,96458.53
2022-10-26T00:36:32.369Z,96447.59
2022-10-26T00:37:04.523Z,96460.41
2022-10-26T00:37:36.865Z,96447.84
2022-10-26T00:38:09.119Z,96457.28
2022-10-26T00:38:46.131Z,96451.50
2022-10-26T00:39:18.354Z,96443.00
2022-10-26T00:39:50.446Z,96440.56
2022-10-26T00:40:22.997Z,96446.25
2022-10-26T00:40:55.120Z,96447.28
2022-10-26T00:41:31.017Z,96445.47
2022-10-26T00:42:03.055Z,96437.88
2022-10-26T00:42:35.157Z,96437.34
2022-10-26T00:43:16.535Z,96447.91
2022-10-26T00:43:49.026Z,96442.94
2022-10-26T00:44:48.776Z,96452.41
2022-10-26T00:45:25.941Z,96456.41
2022-10-26T00:45:59.709Z,96455.38
2022-10-26T00:46:36.016Z,96452.72
2022-10-26T00:47:13.098Z,96448.47
2022-10-26T00:47:53.321Z,96440.22
2022-10-26T00:48:28.891Z,96446.00
2022-10-26T00:49:15.004Z,96438.22
2022-10-26T00:49:49.647Z,96441.91
2022-10-26T00:50:28.013Z,96439.88
2022-10-26T00:51:03.107Z,96437.63
2022-10-26T00:51:44.849Z,96440.88
2022-10-26T00:52:18.813Z,96436.97
2022-10-26T00:52:52.785Z,96438.53
2022-10-26T00:53:25.078Z,96430.28
2022-10-26T00:53:57.298Z,96439.75
2022-10-26T00:54:29.378Z,96441.44
2022-10-26T00:55:01.773Z,96438.78
2022-10-26T00:55:38.601Z,96452.28
2022-10-26T00:56:11.157Z,96447.94
2022-10-26T00:56:43.345Z,96455.16
2022-10-26T00:57:17.753Z,96441.69
2022-10-26T00:57:52.100Z,96439.66
2022-10-26T00:58:26.283Z,96449.22
2022-10-26T00:59:03.636Z,96439.41
2022-10-26T00:59:35.575Z,96449.06
2022-10-26T01:00:08.300Z,96440.97
2022-10-26T01:00:42.366Z,96444.78
2022-10-26T01:01:14.644Z,96435.53
2022-10-26T01:01:48.204Z,96438.94
2022-10-26T01:02:20.460Z,96437.50
2022-10-26T01:02:55.060Z,96427.59
2022-10-26T01:03:28.412Z,96436.03
2022-10-26T01:04:01.029Z,96445.84
2022-10-26T01:04:34.189Z,96434.78
2022-10-26T01:05:06.957Z,96438.88
2022-10-26T01:05:42.458Z,96439.19
2022-10-26T01:06:15.106Z,96434.53
2022-10-26T01:06:47.513Z,96434.53
2022-10-26T01:07:19.999Z,96434.97
2022-10-26T01:07:52.368Z,96431.63
2022-10-26T01:08:26.369Z,96435.28
2022-10-26T01:09:02.788Z,96430.94
2022-10-26T01:09:36.185Z,96436.59
2022-10-26T01:10:09.280Z,96437.13
2022-10-26T01:10:42.931Z,96434.63
2022-10-26T01:11:15.111Z,96434.97
2022-10-26T01:11:47.246Z,96438.44
2022-10-26T01:12:19.206Z,96432.19
2022-10-26T01:12:52.687Z,96444.22
2022-10-26T01:13:28.097Z,96440.78
2022-10-26T01:14:03.653Z,96430.56
2022-10-26T01:14:35.802Z,96443.06
2022-10-26T01:15:08.497Z,96443.34
2022-10-26T01:15:52.363Z,96447.69
2022-10-26T01:16:50.697Z,96444.78
2022-10-26T01:17:47.063Z,96447.13
2022-10-26T01:18:51.053Z,96453.31
2022-10-26T01:19:45.673Z,96456.78
2022-10-26T01:20:43.452Z,96457.69
2022-10-26T01:21:42.895Z,96461.47
2022-10-26T01:22:21.677Z,96464.81
2022-10-26T01:23:05.881Z,96456.78
2022-10-26T01:23:43.474Z,96461.38
2022-10-26T01:24:41.130Z,96466.81
2022-10-26T01:25:51.503Z,96472.97
2022-10-26T01:26:38.309Z,96469.25
2022-10-26T01:27:36.284Z,96468.63
2022-10-26T01:28:35.408Z,96459.06
2022-10-26T01:29:26.842Z,96469.47
2022-10-26T01:30:29.636Z,96465.69
2022-10-26T01:31:05.321Z,96461.88
2022-10-26T01:32:12.576Z,96462.22
2022-10-26T01:32:59.641Z,96462.31
2022-10-26T01:33:39.443Z,96462.75
2022-10-26T01:34:23.895Z,96461.97
2022-10-26T01:35:11.556Z,96463.44
2022-10-26T01:35:51.954Z,96459.78
2022-10-26T01:36:34.228Z,96466.50
2022-10-26T01:37:12.798Z,96461.97
2022-10-26T01:38:04.882Z,96458.88
2022-10-26T01:38:52.380Z,96465.59
2022-10-26T01:39:39.751Z,96456.47
2022-10-26T01:40:21.846Z,96462.91
2022-10-26T01:41:17.570Z,96458.78
2022-10-26T01:41:51.612Z,96448.84
2022-10-26T01:42:23.995Z,96456.53
2022-10-26T01:42:59.195Z,96456.72
2022-10-26T01:43:36.701Z,96445.34
2022-10-26T01:44:24.270Z,96448.47
2022-10-26T01:45:01.406Z,96454.81
2022-10-26T01:45:34.783Z,96455.47
2022-10-26T01:46:09.976Z,96450.03
2022-10-26T01:46:46.187Z,96458.47
2022-10-26T01:47:20.949Z,96457.72
2022-10-26T01:47:55.070Z,96444.41
2022-10-26T01:48:30.087Z,96455.38
2022-10-26T01:49:08.170Z,96449.78
2022-10-26T01:49:46.927Z,96455.63
2022-10-26T01:50:20.829Z,96457.22
2022-10-26T01:50:54.938Z,96461.34
2022-10-26T01:51:28.878Z,96460.91
2022-10-26T01:52:00.891Z,96455.63
2022-10-26T01:52:33.721Z,96461.78
2022-10-26T01:53:05.869Z,96460.91
2022-10-26T01:53:44.755Z,96461.88
2022-10-26T01:54:19.161Z,96464.22
2022-10-26T01:54:51.288Z,96455.50
2022-10-26T01:55:48.717Z,96463.63
2022-10-26T01:56:30.844Z,96460.56
2022-10-26T01:57:05.713Z,96466.50
2022-10-26T01:57:38.537Z,96463.91
2022-10-26T01:58:32.155Z,96472.50
2022-10-26T01:59:22.444Z,96467.63
2022-10-26T02:00:03.300Z,96473.88
2022-10-26T02:00:41.059Z,96467.13
2022-10-26T02:01:56.725Z,96472.75
2022-10-26T02:03:02.087Z,96471.47
2022-10-26T02:03:42.373Z,96478.81
2022-10-26T02:04:19.882Z,96476.38
2022-10-26T02:05:25.595Z,96479.06
2022-10-26T02:06:53.130Z,96479.09
2022-10-26T02:07:40.237Z,96480.25
2022-10-26T02:08:30.102Z,96489.34
2022-10-26T02:09:23.595Z,96475.97
2022-10-26T02:10:13.672Z,96479.53
2022-10-26T02:10:45.430Z,96473.31
2022-10-26T02:11:36.112Z,96479.88
2022-10-26T02:12:26.430Z,96475.97
2022-10-26T02:13:27.827Z,96479.00
2022-10-26T02:14:17.854Z,96477.88
2022-10-26T02:15:12.791Z,96481.13
2022-10-26T02:16:10.713Z,96485.16
2022-10-26T02:16:58.259Z,96482.47
2022-10-26T02:17:40.739Z,96486.59
2022-10-26T02:18:22.562Z,96480.25
2022-10-26T02:19:12.957Z,96476.00
2022-10-26T02:19:52.038Z,96467.31
2022-10-26T02:21:04.213Z,96469.19
2022-10-26T02:21:42.062Z,96463.53
2022-10-26T02:22:25.482Z,96460.19
2022-10-26T02:23:00.641Z,96460.66
2022-10-26T02:23:37.461Z,96457.53
2022-10-26T02:24:13.914Z,96451.06
2022-10-26T02:24:47.979Z,96449.97
2022-10-26T02:25:28.748Z,96453.94
2022-10-26T02:26:02.021Z,96451.03
2022-10-26T02:26:38.343Z,96453.50
2022-10-26T02:27:16.759Z,96451.81
2022-10-26T02:27:53.708Z,96447.69
2022-10-26T02:28:31.207Z,96439.66
2022-10-26T02:29:07.089Z,96451.72
2022-10-26T02:29:41.188Z,96458.84
2022-10-26T02:30:13.669Z,96449.00
2022-10-26T02:30:48.716Z,96459.72
2022-10-26T02:31:21.112Z,96456.38
2022-10-26T02:31:54.044Z,96456.47
2022-10-26T02:32:31.571Z,96450.88
2022-10-26T02:33:07.876Z,96451.75
2022-10-26T02:33:44.470Z,96451.22
2022-10-26T02:34:21.571Z,96452.31
2022-10-26T02:34:57.870Z,96455.25
2022-10-26T02:35:32.932Z,96455.06
2022-10-26T02:36:08.425Z,96449.94
2022-10-26T02:36:45.604Z,96447.69
2022-10-26T02:37:34.500Z,96452.63
2022-10-26T02:38:11.261Z,96456.38
2022-10-26T02:38:46.286Z,96459.84
2022-10-26T02:39:20.954Z,96447.28
2022-10-26T02:39:54.605Z,96452.38
2022-10-26T02:40:29.813Z,96449.13
2022-10-26T02:41:04.132Z,96435.41
2022-10-26T02:41:42.101Z,96431.31
2022-10-26T02:42:15.828Z,96436.63
2022-10-26T02:42:50.167Z,96429.38
2022-10-26T02:43:25.015Z,96428.81
2022-10-26T02:44:08.136Z,96433.50
2022-10-26T02:44:49.105Z,96436.97
2022-10-26T02:45:30.659Z,96441.63
2022-10-26T02:46:08.003Z,96434.69
2022-10-26T02:46:40.201Z,96427.34
2022-10-26T02:47:13.319Z,96428.72
2022-10-26T02:47:45.395Z,96431.47
2022-10-26T02:48:17.920Z,96431.38
2022-10-26T02:48:50.037Z,96423.16
2022-10-26T02:49:22.614Z,96424.69
2022-10-26T02:49:55.388Z,96424.19
2022-10-26T02:50:37.293Z,96427.19
2022-10-26T02:51:20.403Z,96425.56
2022-10-26T02:52:04.767Z,96429.81
2022-10-26T02:52:58.739Z,96440.28
2022-10-26T02:53:38.910Z,96438.13
2022-10-26T02:54:18.892Z,96427.25
2022-10-26T02:54:54.299Z,96438.72
2022-10-26T02:55:33.044Z,96431.47
2022-10-26T02:56:13.915Z,96434.81
2022-10-26T02:56:45.853Z,96434.72
2022-10-26T02:57:24.700Z,96441.16
2022-10-26T02:58:06.127Z,96440.38
2022-10-26T02:58:43.756Z,96437.00
2022-10-26T02:59:17.139Z,96442.38
2022-10-26T02:59:50.008Z,96434.69
2022-10-26T03:00:22.399Z,96431.13
2022-10-26T03:00:58.151Z,96433.56
2022-10-26T03:01:32.808Z,96423.88
2022-10-26T03:02:05.756Z,96426.78
2022-10-26T03:02:37.909Z,96430.94
2022-10-26T03:03:10.186Z,96432.97
2022-10-26T03:03:45.209Z,96435.22
2022-10-26T03:04:19.787Z,96437.16
2022-10-26T03:04:52.753Z,96435.28
2022-10-26T03:05:27.728Z,96428.47
2022-10-26T03:06:00.038Z,96428.47
2022-10-26T03:06:33.736Z,96429.47
2022-10-26T03:07:06.061Z,96426.91
2022-10-26T03:07:40.561Z,96427.25
2022-10-26T03:08:14.942Z,96432.59
2022-10-26T03:08:50.989Z,96428.72
2022-10-26T03:09:25.552Z,96421.59
2022-10-26T03:09:59.400Z,96433.34
2022-10-26T03:10:41.288Z,96430.56
2022-10-26T03:11:15.627Z,96430.59
2022-10-26T03:11:47.778Z,96425.25
2022-10-26T03:12:28.595Z,96417.69
2022-10-26T03:13:04.148Z,96432.94
2022-10-26T03:13:38.711Z,96421.44
2022-10-26T03:14:11.269Z,96427.13
2022-10-26T03:14:43.949Z,96421.78
2022-10-26T03:15:16.271Z,96419.81
2022-10-26T03:15:48.788Z,96413.56
2022-10-26T03:16:23.502Z,96423.34
2022-10-26T03:16:55.911Z,96419.47
2022-10-26T03:17:27.997Z,96418.09
2022-10-26T03:18:00.574Z,96417.31
2022-10-26T03:18:32.746Z,96417.44
2022-10-26T03:19:05.771Z,96419.22
2022-10-26T03:19:40.551Z,96419.75
2022-10-26T03:20:15.226Z,96414.63
2022-10-26T03:20:47.490Z,96417.53
2022-10-26T03:21:19.651Z,96419.50
2022-10-26T03:21:52.324Z,96413.47
2022-10-26T03:22:24.806Z,96421.16
2022-10-26T03:22:57.307Z,96421.59
2022-10-26T03:23:29.547Z,96417.69
2022-10-26T03:24:01.757Z,96429.53
2022-10-26T03:24:36.449Z,96423.75
2022-10-26T03:25:43.466Z,96432.88
2022-10-26T03:26:15.859Z,96441.63
2022-10-26T03:26:50.243Z,96435.94
2022-10-26T03:27:24.326Z,96433.13
2022-10-26T03:28:01.185Z,96440.91
2022-10-26T03:28:33.346Z,96435.13
2022-10-26T03:29:05.817Z,96435.53
2022-10-26T03:29:37.912Z,96443.25
2022-10-26T03:30:10.355Z,96447.47
2022-10-26T03:30:42.496Z,96449.13
2022-10-26T03:31:14.680Z,96444.03
2022-10-26T03:31:46.791Z,96445.50
2022-10-26T03:32:19.014Z,96451.59
2022-10-26T03:32:51.175Z,96449.28
2022-10-26T03:33:25.678Z,96451.47
2022-10-26T03:34:01.783Z,96456.72
2022-10-26T03:34:35.410Z,96464.22
2022-10-26T03:35:07.772Z,96461.88
2022-10-26T03:35:40.086Z,96460.00
2022-10-26T03:36:12.395Z,96468.88
2022-10-26T03:36:44.466Z,96472.97
2022-10-26T03:37:18.217Z,96464.53
2022-10-26T03:37:51.641Z,96471.19
2022-10-26T03:38:24.580Z,96462.94
2022-10-26T03:39:01.957Z,96466.09
2022-10-26T03:39:33.958Z,96471.84
2022-10-26T03:40:09.479Z,96468.50
2022-10-26T03:40:41.820Z,96470.94
2022-10-26T03:41:13.990Z,96465.38
2022-10-26T03:41:49.115Z,96463.75
2022-10-26T03:42:23.652Z,96465.19
2022-10-26T03:42:55.871Z,96470.09
2022-10-26T03:43:30.365Z,96468.53
2022-10-26T03:44:02.441Z,96466.75
2022-10-26T03:44:34.446Z,96472.91
2022-10-26T03:45:07.539Z,96469.38
2022-10-26T03:45:41.983Z,96478.19
2022-10-26T03:46:14.234Z,96467.72
2022-10-26T03:46:46.329Z,96469.94
2022-10-26T03:47:18.280Z,96474.84
2022-10-26T03:47:51.096Z,96481.19
2022-10-26T03:48:23.274Z,96470.16
2022-10-26T03:48:55.571Z,96480.19
2022-10-26T03:49:27.609Z,96480.44
2022-10-26T03:50:00.653Z,96488.97
2022-10-26T03:50:32.770Z,96476.25
2022-10-26T03:51:04.977Z,96473.66
2022-10-26T03:51:37.197Z,96482.00
2022-10-26T03:52:09.245Z,96477.69
2022-10-26T03:52:41.240Z,96468.63
2022-10-26T03:53:13.309Z,96475.84
2022-10-26T03:53:45.604Z,96470.41
2022-10-26T03:54:20.601Z,96471.19
2022-10-26T03:54:53.084Z,96472.56
2022-10-26T03:55:25.252Z,96469.66
2022-10-26T03:55:57.334Z,96472.00
2022-10-26T03:56:29.451Z,96471.47
2022-10-26T03:57:02.787Z,96468.53
2022-10-26T03:57:37.497Z,96468.44
2022-10-26T03:58:09.561Z,96473.47
2022-10-26T03:58:41.812Z,96468.78
2022-10-26T03:59:14.024Z,96474.84
2022-10-26T03:59:46.734Z,96477.16
2022-10-26T04:00:19.391Z,96479.94
2022-10-26T04:00:51.778Z,96479.69
2022-10-26T04:01:23.979Z,96481.84
2022-10-26T04:01:57.894Z,96485.72
2022-10-26T04:02:30.284Z,96480.38
2022-10-26T04:03:02.293Z,96479.25
2022-10-26T04:03:34.307Z,96475.81
2022-10-26T04:04:06.602Z,96484.25
2022-10-26T04:04:38.763Z,96474.13
2022-10-26T04:05:11.437Z,96483.34
2022-10-26T04:05:43.564Z,96479.00
2022-10-26T04:06:17.797Z,96490.41
2022-10-26T04:06:49.832Z,96482.81
2022-10-26T04:07:21.869Z,96484.81
2022-10-26T04:07:58.704Z,96470.47
2022-10-26T04:08:32.046Z,96473.47
2022-10-26T04:09:04.167Z,96478.72
2022-10-26T04:09:36.147Z,96475.50
2022-10-26T04:10:09.230Z,96479.97
2022-10-26T04:10:41.476Z,96470.72
2022-10-26T04:11:13.496Z,96484.66
2022-10-26T04:11:45.539Z,96476.16
2022-10-26T04:12:17.804Z,96484.41
2022-10-26T04:12:50.025Z,96484.75
2022-10-26T04:13:22.132Z,96479.72
2022-10-26T04:13:55.377Z,96482.16
2022-10-26T04:14:29.670Z,96473.63
2022-10-26T04:15:33.792Z,96474.53
2022-10-26T04:16:06.067Z,96472.09
2022-10-26T04:16:40.395Z,96479.22
2022-10-26T04:17:12.320Z,96469.97
2022-10-26T04:17:44.378Z,96482.88
2022-10-26T04:18:16.832Z,96481.97
2022-10-26T04:18:48.863Z,96478.84
2022-10-26T04:19:21.188Z,96481.75
2022-10-26T04:19:53.271Z,96482.16
2022-10-26T04:20:27.034Z,96483.47
2022-10-26T04:21:02.448Z,96484.19
2022-10-26T04:21:35.468Z,96483.06
2022-10-26T04:22:07.671Z,96489.84
2022-10-26T04:22:39.651Z,96490.94
2022-10-26T04:23:14.658Z,96486.59
2022-10-26T04:23:47.050Z,96497.88
2022-10-26T04:24:19.030Z,96503.34
2022-10-26T04:24:51.384Z,96504.38
2022-10-26T04:25:23.338Z,96504.13
2022-10-26T04:25:55.568Z,96503.34
2022-10-26T04:26:30.216Z,96509.16
2022-10-26T04:27:02.310Z,96507.69
2022-10-26T04:27:35.458Z,96508.56
2022-10-26T04:28:08.978Z,96513.22
2022-10-26T04:28:40.992Z,96519.03
2022-10-26T04:29:13.868Z,96517.38
2022-10-26T04:29:45.712Z,96520.03
2022-10-26T04:30:17.842Z,96531.78
2022-10-26T04:30:49.888Z,96530.56
2022-10-26T04:31:21.867Z,96533.00
2022-10-26T04:31:54.061Z,96535.75
2022-10-26T04:32:26.012Z,96530.31
2022-10-26T04:32:58.324Z,96542.66
2022-10-26T04:33:30.347Z,96525.06
2022-10-26T04:34:02.566Z,96530.84
2022-10-26T04:34:34.706Z,96537.78
2022-10-26T04:35:07.042Z,96550.19
2022-10-26T04:35:39.194Z,96555.06
2022-10-26T04:36:11.198Z,96562.44
2022-10-26T04:36:43.276Z,96559.88
2022-10-26T04:37:15.267Z,96573.47
2022-10-26T04:37:49.688Z,96576.94
2022-10-26T04:38:24.685Z,96582.97
2022-10-26T04:38:56.808Z,96574.50
2022-10-26T04:39:28.775Z,96576.75
2022-10-26T04:40:02.314Z,96578.50
2022-10-26T04:40:35.241Z,96589.91
2022-10-26T04:41:07.259Z,96597.94
2022-10-26T04:41:39.354Z,96587.88
2022-10-26T04:42:11.754Z,96592.13
2022-10-26T04:42:47.863Z,96592.00
2022-10-26T04:43:20.345Z,96592.69
2022-10-26T04:43:55.477Z,96597.94
2022-10-26T04:44:27.489Z,96601.03
2022-10-26T04:45:01.983Z,96611.72
2022-10-26T04:45:34.545Z,96613.19
2022-10-26T04:46:06.585Z,96613.41
2022-10-26T04:46:38.671Z,96611.88
2022-10-26T04:47:10.709Z,96615.22
2022-10-26T04:47:43.049Z,96623.47
2022-10-26T04:48:15.074Z,96617.22
2022-10-26T04:48:48.790Z,96622.00
2022-10-26T04:49:20.712Z,96620.09
2022-10-26T04:49:52.762Z,96622.25
2022-10-26T04:50:27.540Z,96622.00
2022-10-26T04:51:01.316Z,96614.66
2022-10-26T04:51:33.409Z,96621.41
2022-10-26T04:52:06.324Z,96614.63
2022-10-26T04:52:38.698Z,96611.31
2022-10-26T04:53:11.962Z,96601.94
2022-10-26T04:53:43.913Z,96621.56
2022-10-26T04:54:15.990Z,96613.53
2022-10-26T04:54:47.940Z,96613.41
2022-10-26T04:55:19.904Z,96619.56
2022-10-26T04:55:57.457Z,96610.75
2022-10-26T04:56:29.967Z,96619.44
2022-10-26T04:57:01.937Z,96604.81
2022-10-26T04:57:35.063Z,96599.03
2022-10-26T04:58:07.323Z,96600.84
2022-10-26T04:58:39.247Z,96594.13
2022-10-26T04:59:11.395Z,96591.88
2022-10-26T04:59:43.728Z,96584.19
2022-10-26T05:00:15.953Z,96587.22
2022-10-26T05:00:47.977Z,96588.53
2022-10-26T05:01:19.979Z,96590.22
2022-10-26T05:01:52.221Z,96584.97
2022-10-26T05:02:24.417Z,96593.56
2022-10-26T05:03:01.040Z,96587.75
2022-10-26T05:03:33.093Z,96577.09
2022-10-26T05:04:05.138Z,96581.44
2022-10-26T05:04:37.130Z,96583.09
2022-10-26T05:05:14.940Z,96588.34
2022-10-26T05:05:49.918Z,96588.34
2022-10-26T05:06:21.969Z,96587.44
2022-10-26T05:06:54.048Z,96573.19
2022-10-26T05:07:26.074Z,96579.63
2022-10-26T05:07:58.287Z,96568.50
2022-10-26T05:08:30.471Z,96574.28
2022-10-26T05:09:02.877Z,96567.94
2022-10-26T05:09:38.221Z,96568.50
2022-10-26T05:10:12.453Z,96570.94
2022-10-26T05:10:49.417Z,96583.66
2022-10-26T05:11:21.453Z,96601.38
2022-10-26T05:11:53.514Z,96615.78
2022-10-26T05:12:25.498Z,96626.47
2022-10-26T05:13:00.824Z,96617.09
2022-10-26T05:13:38.602Z,96612.84
2022-10-26T05:14:10.525Z,96603.50
2022-10-26T05:14:42.549Z,96602.25
2022-10-26T05:15:15.262Z,96601.81
2022-10-26T05:15:47.287Z,96596.03
2022-10-26T05:16:19.397Z,96605.06
2022-10-26T05:16:51.842Z,96607.28
2022-10-26T05:17:23.831Z,96604.59
2022-10-26T05:17:58.028Z,96610.50
2022-10-26T05:18:30.012Z,96607.75
2022-10-26T05:19:02.044Z,96607.03
2022-10-26T05:19:34.068Z,96601.50
2022-10-26T05:20:10.364Z,96601.59
2022-10-26T05:20:42.340Z,96605.84
2022-10-26T05:21:19.372Z,96605.41
2022-10-26T05:21:53.508Z,96598.25
2022-10-26T05:22:25.976Z,96608.97
2022-10-26T05:22:59.603Z,96601.50
2022-10-26T05:23:31.582Z,96588.13
2022-10-26T05:24:04.569Z,96585.66
2022-10-26T05:24:40.324Z,96588.34
2022-10-26T05:25:12.366Z,96589.00
2022-10-26T05:25:45.153Z,96571.84
2022-10-26T05:26:17.352Z,96574.84
2022-10-26T05:26:49.257Z,96568.72
2022-10-26T05:27:21.516Z,96569.84
2022-10-26T05:28:01.435Z,96564.72
2022-10-26T05:28:35.596Z,96570.16
2022-10-26T05:29:08.147Z,96567.16
2022-10-26T05:29:40.167Z,96557.34
2022-10-26T05:30:12.870Z,96557.47
2022-10-26T05:30:46.258Z,96553.78
2022-10-26T05:31:18.270Z,96550.00
2022-10-26T05:31:50.242Z,96554.03
2022-10-26T05:32:22.170Z,96555.34
2022-10-26T05:32:58.652Z,96549.56
2022-10-26T05:33:30.682Z,96552.91
2022-10-26T05:34:02.868Z,96553.00
2022-10-26T05:34:38.195Z,96566.69
2022-10-26T05:35:12.774Z,96556.22
2022-10-26T05:35:44.858Z,96568.28
2022-10-26T05:36:18.683Z,96560.69
2022-10-26T05:36:53.571Z,96564.50
2022-10-26T05:37:28.969Z,96557.81
2022-10-26T05:38:07.722Z,96552.91
2022-10-26T05:38:39.753Z,96558.59
2022-10-26T05:39:11.913Z,96557.16
2022-10-26T05:39:44.218Z,96566.28
2022-10-26T05:40:17.646Z,96569.50
2022-10-26T05:40:54.272Z,96581.56
2022-10-26T05:41:26.703Z,96578.66
2022-10-26T05:41:58.786Z,96586.00
2022-10-26T05:42:30.911Z,96575.19
2022-10-26T05:43:03.214Z,96579.31
2022-10-26T05:43:35.380Z,96586.78
2022-10-26T05:44:07.474Z,96596.16
2022-10-26T05:44:39.461Z,96595.88
2022-10-26T05:45:13.896Z,96595.88
2022-10-26T05:45:46.151Z,96601.50
2022-10-26T05:46:18.292Z,96606.84
2022-10-26T05:47:22.424Z,96604.63
2022-10-26T05:47:58.574Z,96599.78
2022-10-26T05:48:33.775Z,96608.63
2022-10-26T05:49:05.846Z,96598.38
2022-10-26T05:49:37.865Z,96594.59
2022-10-26T05:50:11.277Z,96594.69
2022-10-26T05:50:43.298Z,96597.03
2022-10-26T05:51:16.074Z,96596.59
2022-10-26T05:51:48.065Z,96596.16
2022-10-26T05:52:20.240Z,96595.88
2022-10-26T05:52:52.279Z,96592.03
2022-10-26T05:53:24.494Z,96592.59
2022-10-26T05:53:56.815Z,96590.09
2022-10-26T05:54:28.702Z,96585.97
2022-10-26T05:55:00.797Z,96589.78
2022-10-26T05:55:33.391Z,96586.56
2022-10-26T05:56:33.806Z,96577.31
2022-10-26T05:57:06.153Z,96576.97
2022-10-26T05:57:38.582Z,96577.63
2022-10-26T05:58:12.930Z,96587.81
2022-10-26T05:58:45.880Z,96580.75
2022-10-26T05:59:18.162Z,96575.19
2022-10-26T05:59:50.426Z,96586.34
2022-10-26T06:00:25.239Z,96578.56
2022-10-26T06:00:59.785Z,96585.78
2022-10-26T06:02:19.143Z,96577.97
2022-10-26T06:02:53.976Z,96575.06
2022-10-26T06:03:37.754Z,96578.09
2022-10-26T06:04:28.715Z,96580.88
2022-10-26T06:05:04.638Z,96578.19
2022-10-26T06:05:51.077Z,96585.44
2022-10-26T06:06:23.227Z,96582.91
2022-10-26T06:06:56.406Z,96584.22
2022-10-26T06:07:28.503Z,96586.09
2022-10-26T06:08:00.590Z,96580.53
2022-10-26T06:08:32.826Z,96587.44
2022-10-26T06:09:04.783Z,96587.22
2022-10-26T06:09:37.257Z,96585.56
2022-10-26T06:10:12.037Z,96588.66
2022-10-26T06:10:44.014Z,96587.44
2022-10-26T06:11:16.163Z,96586.56
2022-10-26T06:12:26.628Z,96588.22
2022-10-26T06:12:58.655Z,96589.66
2022-10-26T06:13:30.823Z,96587.19
2022-10-26T06:14:03.816Z,96580.28
2022-10-26T06:14:36.563Z,96580.72
2022-10-26T06:15:13.287Z,96583.16
2022-10-26T06:16:22.525Z,96586.53
2022-10-26T06:17:23.412Z,96595.22
2022-10-26T06:18:23.704Z,96594.22
2022-10-26T06:19:20.597Z,96589.72
2022-10-26T06:19:57.995Z,96594.88
2022-10-26T06:20:35.737Z,96597.66
2022-10-26T06:21:28.548Z,96597.84
2022-10-26T06:22:18.986Z,96602.63
2022-10-26T06:23:22.996Z,96597.31
2022-10-26T06:24:18.029Z,96603.44
2022-10-26T06:25:13.718Z,96601.88
2022-10-26T06:25:58.191Z,96604.75
2022-10-26T06:27:03.365Z,96605.13
2022-10-26T06:28:23.280Z,96603.66
2022-10-26T06:29:10.813Z,96602.31
2022-10-26T06:29:56.452Z,96600.75
2022-10-26T06:30:28.355Z,96594.81
2022-10-26T06:31:00.184Z,96595.72
2022-10-26T06:31:32.189Z,96595.38
2022-10-26T06:32:04.079Z,96596.88
2022-10-26T06:32:36.150Z,96587.75
2022-10-26T06:33:18.301Z,96589.63
2022-10-26T06:34:00.886Z,96594.56
2022-10-26T06:34:36.077Z,96594.69
2022-10-26T06:35:28.090Z,96593.56
2022-10-26T06:36:22.567Z,96603.38
2022-10-26T06:36:57.577Z,96592.00
2022-10-26T06:37:30.729Z,96600.91
2022-10-26T06:38:07.654Z,96598.66
2022-10-26T06:38:44.908Z,96599.53
2022-10-26T06:39:17.955Z,96597.44
2022-10-26T06:39:53.917Z,96597.25
2022-10-26T06:40:26.877Z,96593.53
2022-10-26T06:40:59.909Z,96598.22
2022-10-26T06:41:33.565Z,96596.38
2022-10-26T06:42:06.467Z,96596.38
2022-10-26T06:42:39.201Z,96589.38
2022-10-26T06:43:34.138Z,96589.78
2022-10-26T06:44:07.011Z,96589.22
2022-10-26T06:44:39.470Z,96589.78
2022-10-26T06:45:52.413Z,96591.75
2022-10-26T06:46:39.282Z,96584.22
2022-10-26T06:47:27.160Z,96596.72
2022-10-26T06:48:16.668Z,96584.19
2022-10-26T06:48:56.839Z,96593.34
2022-10-26T06:49:37.035Z,96594.00
2022-10-26T06:50:42.442Z,96597.63
2022-10-26T06:51:16.800Z,96590.59
2022-10-26T06:52:07.339Z,96591.88
2022-10-26T06:52:48.572Z,96586.63
2022-10-26T06:54:25.698Z,96590.13
2022-10-26T06:54:57.767Z,96600.25
2022-10-26T06:55:37.272Z,96593.03
2022-10-26T06:56:11.612Z,96591.66
2022-10-26T06:56:45.320Z,96587.50
2022-10-26T06:57:19.551Z,96591.50
2022-10-26T06:57:51.691Z,96592.47
2022-10-26T06:58:31.265Z,96597.16
2022-10-26T06:59:16.826Z,96593.50
2022-10-26T06:59:55.909Z,96590.81
2022-10-26T07:00:28.363Z,96594.97
2022-10-26T07:01:00.997Z,96601.03
2022-10-26T07:01:32.830Z,96596.25
2022-10-26T07:02:06.593Z,96590.19
2022-10-26T07:02:38.833Z,96591.53
2022-10-26T07:03:10.639Z,96594.81
2022-10-26T07:03:42.597Z,96593.25
2022-10-26T07:04:14.393Z,96590.81
2022-10-26T07:04:46.340Z,96597.63
2022-10-26T07:05:18.300Z,96593.84
2022-10-26T07:05:50.299Z,96596.06
2022-10-26T07:07:24.350Z,96602.69
2022-10-26T07:07:56.271Z,96597.84
2022-10-26T07:08:28.077Z,96597.97
2022-10-26T07:09:00.370Z,96594.00
2022-10-26T07:09:32.267Z,96597.41